createdAt,value
2023-05-12T00:00:14.638Z,13.45
2023-05-12T00:01:15.170Z,13.42
2023-05-12T00:02:15.237Z,13.39
2023-05-12T00:03:15.148Z,13.42
2023-05-12T00:04:15.329Z,13.42
2023-05-12T00:05:15.352Z,13.40
2023-05-12T00:06:15.387Z,13.42
2023-05-12T00:07:14.936Z,13.36
2023-05-12T00:08:15.117Z,13.36
2023-05-12T00:09:14.796Z,13.36
2023-05-12T00:10:15.528Z,13.32
2023-05-12T00:11:14.611Z,13.29
2023-05-12T00:12:14.830Z,13.30
2023-05-12T00:13:14.976Z,13.26
2023-05-12T00:14:14.879Z,13.27
2023-05-12T00:15:14.540Z,13.26
2023-05-12T00:16:14.480Z,13.24
2023-05-12T00:17:14.480Z,13.21
2023-05-12T00:18:14.563Z,13.21
2023-05-12T00:19:14.609Z,13.21
2023-05-12T00:20:14.608Z,13.19
2023-05-12T00:21:14.592Z,13.14
2023-05-12T00:22:14.611Z,13.13
2023-05-12T00:23:14.605Z,13.14
2023-05-12T00:24:14.621Z,13.14
2023-05-12T00:25:14.654Z,13.13
2023-05-12T00:26:14.422Z,13.13
2023-05-12T00:27:14.556Z,13.11
2023-05-12T00:28:14.722Z,13.09
2023-05-12T00:29:14.727Z,13.08
2023-05-12T00:30:14.398Z,13.06
2023-05-12T00:31:14.782Z,13.06
2023-05-12T00:32:14.850Z,13.06
2023-05-12T00:33:14.887Z,13.05
2023-05-12T00:34:14.966Z,13.06
2023-05-12T00:35:14.361Z,13.02
2023-05-12T00:36:14.346Z,13.06
2023-05-12T00:37:14.804Z,13.06
2023-05-12T00:38:15.015Z,13.04
2023-05-12T00:39:14.304Z,13.08
2023-05-12T00:40:14.285Z,13.02
2023-05-12T00:41:14.280Z,12.99
2023-05-12T00:42:14.286Z,13.01
2023-05-12T00:43:14.297Z,12.99
2023-05-12T00:44:14.354Z,12.98
2023-05-12T00:45:14.296Z,12.95
2023-05-12T00:46:14.363Z,12.96
2023-05-12T00:47:14.434Z,12.95
2023-05-12T00:48:14.406Z,12.93
2023-05-12T00:49:14.366Z,12.96
2023-05-12T00:50:14.390Z,12.93
2023-05-12T00:51:14.394Z,12.91
2023-05-12T00:52:14.374Z,12.93
2023-05-12T00:53:14.406Z,12.90
2023-05-12T00:54:14.438Z,12.93
2023-05-12T00:55:14.448Z,12.95
2023-05-12T00:56:14.461Z,12.91
2023-05-12T00:57:14.287Z,12.93
2023-05-12T00:58:14.491Z,12.91
2023-05-12T00:59:14.357Z,12.90
2023-05-12T01:00:14.522Z,12.90
2023-05-12T01:01:14.192Z,12.90
2023-05-12T01:02:14.352Z,12.90
2023-05-12T01:03:14.622Z,12.93
2023-05-12T01:04:14.565Z,12.90
2023-05-12T01:05:14.585Z,12.90
2023-05-12T01:06:14.365Z,12.93
2023-05-12T01:07:14.582Z,12.91
2023-05-12T01:08:14.304Z,12.95
2023-05-12T01:09:14.638Z,12.95
2023-05-12T01:10:15.561Z,12.93
2023-05-12T01:11:14.088Z,12.93
2023-05-12T01:12:14.131Z,12.93
2023-05-12T01:13:14.055Z,12.95
2023-05-12T01:14:14.139Z,12.93
2023-05-12T01:15:14.115Z,12.93
2023-05-12T01:16:14.252Z,12.93
2023-05-12T01:17:14.114Z,12.90
2023-05-12T01:18:14.439Z,12.91
2023-05-12T01:19:14.493Z,12.91
2023-05-12T01:20:14.529Z,12.91
2023-05-12T01:21:14.007Z,12.91
2023-05-12T01:22:14.017Z,12.96
2023-05-12T01:23:14.021Z,12.93
2023-05-12T01:24:14.508Z,12.95
2023-05-12T01:25:13.991Z,12.96
2023-05-12T01:26:14.635Z,12.93
2023-05-12T01:27:14.000Z,12.90
2023-05-12T01:28:14.012Z,12.91
2023-05-12T01:29:14.011Z,12.95
2023-05-12T01:30:14.015Z,12.96
2023-05-12T01:31:14.918Z,12.96
2023-05-12T01:32:13.938Z,12.98
2023-05-12T01:33:14.032Z,12.95
2023-05-12T01:34:13.955Z,12.93
2023-05-12T01:35:13.945Z,12.96
2023-05-12T01:36:13.970Z,12.91
2023-05-12T01:37:13.963Z,12.96
2023-05-12T01:38:13.998Z,12.96
2023-05-12T01:39:13.980Z,12.91
2023-05-12T01:40:13.875Z,12.98
2023-05-12T01:41:13.870Z,12.93
2023-05-12T01:42:13.897Z,12.93
2023-05-12T01:43:13.907Z,12.91
2023-05-12T01:44:13.854Z,12.91
2023-05-12T01:45:13.979Z,12.90
2023-05-12T01:46:14.079Z,12.88
2023-05-12T01:47:13.959Z,12.88
2023-05-12T01:48:13.920Z,12.90
2023-05-12T01:49:14.155Z,12.88
2023-05-12T01:50:14.138Z,12.87
2023-05-12T01:51:14.136Z,12.88
2023-05-12T01:52:14.151Z,12.88
2023-05-12T01:53:14.175Z,12.88
2023-05-12T01:54:14.185Z,12.88
2023-05-12T01:55:13.963Z,12.84
2023-05-12T01:56:14.213Z,12.84
2023-05-12T01:57:13.950Z,12.87
2023-05-12T01:58:14.240Z,12.83
2023-05-12T01:59:13.820Z,12.83
2023-05-12T02:00:13.900Z,12.86
2023-05-12T02:01:14.229Z,12.86
2023-05-12T02:02:14.120Z,12.86
2023-05-12T02:03:14.396Z,12.87
2023-05-12T02:04:13.710Z,12.84
2023-05-12T02:05:13.822Z,12.83
2023-05-12T02:06:13.804Z,12.83
2023-05-12T02:07:13.984Z,12.84
2023-05-12T02:08:13.675Z,12.80
2023-05-12T02:09:13.653Z,12.83
2023-05-12T02:10:13.665Z,12.81
2023-05-12T02:11:13.863Z,12.81
2023-05-12T02:12:13.733Z,12.80
2023-05-12T02:13:13.805Z,12.83
2023-05-12T02:14:13.880Z,12.80
2023-05-12T02:15:13.935Z,12.80
2023-05-12T02:16:14.055Z,12.79
2023-05-12T02:17:14.002Z,12.80
2023-05-12T02:18:13.704Z,12.80
2023-05-12T02:19:13.827Z,12.79
2023-05-12T02:20:13.738Z,12.76
2023-05-12T02:21:14.281Z,12.76
2023-05-12T02:22:14.282Z,12.77
2023-05-12T02:23:13.842Z,12.73
2023-05-12T02:24:14.982Z,12.76
2023-05-12T02:25:14.502Z,12.72
2023-05-12T02:26:14.400Z,12.73
2023-05-12T02:27:13.791Z,12.73
2023-05-12T02:28:14.104Z,12.72
2023-05-12T02:29:13.781Z,12.69
2023-05-12T02:30:14.360Z,12.71
2023-05-12T02:31:14.442Z,12.71
2023-05-12T02:32:13.871Z,12.69
2023-05-12T02:33:13.624Z,12.71
2023-05-12T02:34:13.818Z,12.71
2023-05-12T02:35:13.623Z,12.71
2023-05-12T02:36:13.466Z,12.71
2023-05-12T02:37:13.476Z,12.71
2023-05-12T02:38:13.470Z,12.71
2023-05-12T02:39:13.477Z,12.69
2023-05-12T02:40:13.478Z,12.71
2023-05-12T02:41:13.478Z,12.69
2023-05-12T02:42:13.487Z,12.68
2023-05-12T02:43:13.573Z,12.69
2023-05-12T02:44:13.544Z,12.69
2023-05-12T02:45:13.576Z,12.69
2023-05-12T02:46:13.622Z,12.68
2023-05-12T02:47:13.584Z,12.66
2023-05-12T02:48:13.616Z,12.66
2023-05-12T02:49:13.621Z,12.66
2023-05-12T02:50:13.631Z,12.65
2023-05-12T02:51:13.642Z,12.63
2023-05-12T02:52:13.529Z,12.63
2023-05-12T02:53:13.661Z,12.63
2023-05-12T02:54:13.369Z,12.62
2023-05-12T02:55:13.340Z,12.63
2023-05-12T02:56:13.705Z,12.66
2023-05-12T02:57:13.504Z,12.65
2023-05-12T02:58:13.642Z,12.66
2023-05-12T02:59:13.754Z,12.62
2023-05-12T03:00:13.773Z,12.66
2023-05-12T03:01:13.813Z,12.65
2023-05-12T03:02:13.422Z,12.63
2023-05-12T03:03:13.817Z,12.62
2023-05-12T03:04:13.453Z,12.62
2023-05-12T03:05:13.625Z,12.66
2023-05-12T03:06:13.841Z,12.59
2023-05-12T03:07:13.273Z,12.61
2023-05-12T03:08:13.264Z,12.59
2023-05-12T03:09:13.328Z,12.61
2023-05-12T03:10:13.366Z,12.58
2023-05-12T03:11:13.457Z,12.59
2023-05-12T03:12:13.274Z,12.54
2023-05-12T03:13:13.585Z,12.55
2023-05-12T03:14:13.472Z,12.54
2023-05-12T03:15:13.274Z,12.58
2023-05-12T03:16:13.228Z,12.55
2023-05-12T03:17:13.479Z,12.54
2023-05-12T03:18:13.411Z,12.59
2023-05-12T03:19:13.472Z,12.54
2023-05-12T03:20:13.447Z,12.53
2023-05-12T03:21:13.211Z,12.51
2023-05-12T03:22:13.479Z,12.53
2023-05-12T03:23:13.140Z,12.50
2023-05-12T03:24:13.136Z,12.47
2023-05-12T03:25:13.145Z,12.47
2023-05-12T03:26:13.149Z,12.48
2023-05-12T03:27:13.174Z,12.48
2023-05-12T03:28:13.182Z,12.47
2023-05-12T03:29:13.192Z,12.44
2023-05-12T03:30:13.209Z,12.44
2023-05-12T03:31:13.258Z,12.41
2023-05-12T03:32:13.241Z,12.38
2023-05-12T03:33:13.103Z,12.41
2023-05-12T03:34:13.106Z,12.38
2023-05-12T03:35:13.211Z,12.35
2023-05-12T03:36:13.093Z,12.38
2023-05-12T03:37:13.100Z,12.36
2023-05-12T03:38:13.035Z,12.36
2023-05-12T03:39:13.069Z,12.38
2023-05-12T03:40:13.134Z,12.40
2023-05-12T03:41:13.189Z,12.36
2023-05-12T03:42:13.274Z,12.38
2023-05-12T03:43:13.306Z,12.36
2023-05-12T03:44:13.051Z,12.35
2023-05-12T03:45:13.304Z,12.33
2023-05-12T03:46:13.485Z,12.32
2023-05-12T03:47:13.150Z,12.32
2023-05-12T03:48:13.138Z,12.36
2023-05-12T03:49:13.472Z,12.33
2023-05-12T03:50:13.152Z,12.38
2023-05-12T03:51:13.490Z,12.33
2023-05-12T03:52:13.500Z,12.36
2023-05-12T03:53:13.113Z,12.32
2023-05-12T03:54:13.049Z,12.35
2023-05-12T03:55:13.264Z,12.32
2023-05-12T03:56:13.549Z,12.35
2023-05-12T03:57:13.560Z,12.33
2023-05-12T03:58:13.576Z,12.38
2023-05-12T03:59:12.905Z,12.38
2023-05-12T04:00:13.609Z,12.35
2023-05-12T04:01:12.973Z,12.38
2023-05-12T04:02:12.916Z,12.38
2023-05-12T04:03:13.737Z,12.40
2023-05-12T04:04:13.713Z,12.36
2023-05-12T04:05:12.876Z,12.41
2023-05-12T04:06:12.936Z,12.38
2023-05-12T04:07:13.025Z,12.40
2023-05-12T04:08:13.072Z,12.40
2023-05-12T04:09:12.917Z,12.41
2023-05-12T04:10:13.237Z,12.38
2023-05-12T04:11:13.286Z,12.40
2023-05-12T04:12:13.334Z,12.43
2023-05-12T04:13:13.389Z,12.43
2023-05-12T04:14:12.845Z,12.43
2023-05-12T04:15:13.061Z,12.46
2023-05-12T04:16:13.651Z,12.48
2023-05-12T04:17:13.450Z,12.47
2023-05-12T04:18:13.601Z,12.48
2023-05-12T04:19:13.627Z,12.50
2023-05-12T04:20:13.345Z,12.48
2023-05-12T04:21:13.025Z,12.48
2023-05-12T04:22:13.483Z,12.48
2023-05-12T04:23:13.754Z,12.46
2023-05-12T04:24:13.654Z,12.48
2023-05-12T04:25:13.041Z,12.50
2023-05-12T04:26:13.217Z,12.48
2023-05-12T04:27:12.880Z,12.51
2023-05-12T04:28:13.530Z,12.51
2023-05-12T04:29:12.758Z,12.48
2023-05-12T04:30:13.124Z,12.51
2023-05-12T04:31:12.755Z,12.50
2023-05-12T04:32:12.786Z,12.54
2023-05-12T04:33:12.681Z,12.48
2023-05-12T04:34:12.637Z,12.53
2023-05-12T04:35:12.657Z,12.55
2023-05-12T04:36:12.728Z,12.54
2023-05-12T04:37:12.824Z,12.58
2023-05-12T04:38:12.846Z,12.58
2023-05-12T04:39:12.813Z,12.58
2023-05-12T04:40:13.022Z,12.58
2023-05-12T04:41:13.025Z,12.59
2023-05-12T04:42:12.674Z,12.62
2023-05-12T04:43:59.991Z,12.62
2023-05-12T04:44:12.619Z,12.62
2023-05-12T04:45:12.659Z,12.61
2023-05-12T04:46:13.314Z,12.62
2023-05-12T04:47:12.651Z,12.63
2023-05-12T04:48:13.322Z,12.65
2023-05-12T04:49:12.686Z,12.65
2023-05-12T04:50:12.561Z,12.63
2023-05-12T04:51:12.515Z,12.66
2023-05-12T04:52:12.513Z,12.66
2023-05-12T04:53:12.492Z,12.68
2023-05-12T04:54:12.568Z,12.71
2023-05-12T04:55:12.563Z,12.72
2023-05-12T04:56:12.584Z,12.68
2023-05-12T04:57:12.591Z,12.65
2023-05-12T04:58:12.607Z,12.66
2023-05-12T04:59:12.508Z,12.68
2023-05-12T05:00:12.744Z,12.69
2023-05-12T05:01:12.600Z,12.68
2023-05-12T05:02:12.475Z,12.71
2023-05-12T05:03:12.639Z,12.69
2023-05-12T05:04:12.517Z,12.68
2023-05-12T05:05:12.570Z,12.69
2023-05-12T05:06:12.638Z,12.66
2023-05-12T05:07:12.747Z,12.66
2023-05-12T05:08:12.581Z,12.66
2023-05-12T05:09:12.821Z,12.69
2023-05-12T05:10:12.811Z,12.72
2023-05-12T05:11:12.819Z,12.68
2023-05-12T05:12:12.405Z,12.66
2023-05-12T05:13:12.617Z,12.68
2023-05-12T05:14:12.620Z,12.71
2023-05-12T05:15:12.567Z,12.73
2023-05-12T05:16:12.877Z,12.72
2023-05-12T05:17:12.852Z,12.76
2023-05-12T05:18:12.447Z,12.76
2023-05-12T05:19:21.464Z,12.77
2023-05-12T05:20:15.061Z,12.76
2023-05-12T05:21:12.321Z,12.79
2023-05-12T05:22:12.904Z,12.80
2023-05-12T05:23:12.918Z,12.81
2023-05-12T05:24:12.563Z,12.86
2023-05-12T05:25:12.942Z,12.88
2023-05-12T05:26:12.971Z,12.90
2023-05-12T05:27:12.273Z,12.96
2023-05-12T05:28:12.438Z,12.91
2023-05-12T05:29:12.242Z,12.91
2023-05-12T05:30:12.268Z,12.91
2023-05-12T05:31:12.295Z,12.90
2023-05-12T05:32:12.277Z,12.93
2023-05-12T05:33:12.289Z,12.98
2023-05-12T05:35:38.273Z,13.01
2023-05-12T05:36:56.924Z,13.04
2023-05-12T05:37:38.236Z,13.02
2023-05-12T05:38:38.273Z,13.04
2023-05-12T05:39:38.253Z,13.01
2023-05-12T05:40:51.567Z,13.02
2023-05-12T05:41:38.254Z,13.01
2023-05-12T05:42:38.212Z,13.02
2023-05-12T05:43:38.221Z,13.04
2023-05-12T05:44:38.238Z,13.02
2023-05-12T05:47:04.123Z,13.06
2023-05-12T05:48:04.111Z,13.04
2023-05-12T05:49:04.017Z,13.08
2023-05-12T05:50:04.045Z,13.04
2023-05-12T05:51:04.051Z,13.11
2023-05-12T05:52:15.273Z,13.08
2023-05-12T05:53:04.167Z,13.13
2023-05-12T05:54:04.173Z,13.13
2023-05-12T05:55:04.160Z,13.08
2023-05-12T05:56:04.154Z,13.11
2023-05-12T05:57:04.161Z,13.14
2023-05-12T05:58:03.995Z,13.14
2023-05-12T05:59:03.965Z,13.16
2023-05-12T06:00:04.025Z,13.14
2023-05-12T06:01:04.102Z,13.17
2023-05-12T06:02:04.214Z,13.16
2023-05-12T06:03:04.325Z,13.14
2023-05-12T06:04:04.105Z,13.17
2023-05-12T06:05:04.279Z,13.17
2023-05-12T06:06:04.045Z,13.20
2023-05-12T06:07:03.957Z,13.21
2023-05-12T06:08:04.351Z,13.24
2023-05-12T06:09:04.349Z,13.26
2023-05-12T06:10:04.464Z,13.23
2023-05-12T06:11:04.382Z,13.20
2023-05-12T06:12:04.415Z,13.23
2023-05-12T06:13:04.405Z,13.26
2023-05-12T06:14:05.341Z,13.24
2023-05-12T06:15:04.461Z,13.27
2023-05-12T06:16:03.834Z,13.30
2023-05-12T06:17:03.892Z,13.24
2023-05-12T06:18:03.895Z,13.27
2023-05-12T06:19:03.876Z,13.29
2023-05-12T06:20:03.832Z,13.29
2023-05-12T06:21:03.855Z,13.39
2023-05-12T06:22:03.862Z,13.38
2023-05-12T06:23:03.877Z,13.36
2023-05-12T06:24:03.868Z,13.39
2023-05-12T06:25:03.792Z,13.40
2023-05-12T06:26:03.796Z,13.45
2023-05-12T06:27:03.784Z,13.51
2023-05-12T06:28:03.798Z,13.54
2023-05-12T06:29:03.736Z,13.53
2023-05-12T06:30:03.747Z,13.55
2023-05-12T06:31:03.813Z,13.60
2023-05-12T06:32:03.945Z,13.63
2023-05-12T06:33:03.779Z,13.67
2023-05-12T06:34:03.888Z,13.73
2023-05-12T06:35:03.717Z,13.78
2023-05-12T06:36:03.901Z,13.80
2023-05-12T06:37:03.913Z,13.83
2023-05-12T06:38:03.717Z,13.86
2023-05-12T06:39:03.975Z,13.91
2023-05-12T06:40:03.673Z,13.96
2023-05-12T06:41:03.950Z,13.93
2023-05-12T06:42:03.966Z,13.96
2023-05-12T06:43:03.973Z,14.04
2023-05-12T06:44:03.860Z,14.04
2023-05-12T06:45:03.761Z,14.11
2023-05-12T06:46:03.830Z,14.12
2023-05-12T06:47:03.645Z,14.18
2023-05-12T06:49:29.582Z,14.26
2023-05-12T06:50:29.738Z,14.31
2023-05-12T06:51:30.526Z,14.36
2023-05-12T06:52:29.909Z,14.45
2023-05-12T06:53:29.572Z,14.48
2023-05-12T06:54:29.679Z,14.55
2023-05-12T06:55:29.750Z,14.53
2023-05-12T06:56:29.549Z,14.56
2023-05-12T06:57:29.527Z,14.59
2023-05-12T06:58:29.580Z,14.64
2023-05-12T06:59:29.636Z,14.64
2023-05-12T07:00:29.717Z,14.70
2023-05-12T07:01:29.769Z,14.70
2023-05-12T07:02:29.565Z,14.63
2023-05-12T07:03:29.861Z,14.63
2023-05-12T07:04:29.714Z,14.71
2023-05-12T07:05:29.847Z,14.71
2023-05-12T07:06:29.541Z,14.67
2023-05-12T07:07:30.118Z,14.73
2023-05-12T07:08:29.506Z,14.70
2023-05-12T07:09:29.496Z,14.74
2023-05-12T07:10:29.556Z,14.82
2023-05-12T07:11:29.862Z,14.90
2023-05-12T07:12:30.876Z,14.87
2023-05-12T07:13:29.414Z,14.87
2023-05-12T07:14:29.429Z,14.79
2023-05-12T07:15:32.468Z,14.86
2023-05-12T07:16:29.555Z,14.90
2023-05-12T07:17:29.395Z,14.92
2023-05-12T07:18:29.583Z,14.96
2023-05-12T07:19:29.423Z,14.90
2023-05-12T07:20:29.624Z,14.93
2023-05-12T07:21:29.413Z,14.96
2023-05-12T07:22:29.588Z,14.99
2023-05-12T07:23:29.435Z,15.07
2023-05-12T07:24:29.585Z,15.08
2023-05-12T07:25:29.648Z,15.11
2023-05-12T07:26:29.526Z,15.11
2023-05-12T07:27:29.297Z,15.05
2023-05-12T07:28:29.488Z,15.10
2023-05-12T07:29:29.306Z,15.19
2023-05-12T07:30:29.590Z,15.26
2023-05-12T07:31:29.459Z,15.23
2023-05-12T07:32:29.740Z,15.32
2023-05-12T07:33:29.536Z,15.26
2023-05-12T07:34:29.676Z,15.30
2023-05-12T07:35:29.449Z,15.43
2023-05-12T07:36:29.716Z,15.51
2023-05-12T07:37:29.254Z,15.60
2023-05-12T07:38:29.787Z,15.70
2023-05-12T07:39:29.669Z,15.76
2023-05-12T07:40:29.787Z,15.81
2023-05-12T07:41:29.620Z,15.81
2023-05-12T07:42:29.941Z,15.93
2023-05-12T07:43:29.695Z,15.83
2023-05-12T07:44:29.817Z,15.90
2023-05-12T07:45:29.179Z,15.91
2023-05-12T07:46:29.946Z,15.93
2023-05-12T07:47:29.750Z,16.00
2023-05-12T07:48:29.334Z,16.02
2023-05-12T07:49:29.843Z,16.18
2023-05-12T07:50:29.129Z,16.24
2023-05-12T07:51:29.758Z,16.33
2023-05-12T07:52:29.785Z,16.46
2023-05-12T07:53:29.767Z,16.47
2023-05-12T07:54:29.171Z,16.51
2023-05-12T07:55:29.130Z,16.51
2023-05-12T07:56:29.187Z,16.49
2023-05-12T07:57:29.293Z,16.57
2023-05-12T07:58:29.094Z,16.57
2023-05-12T07:59:29.097Z,16.70
2023-05-12T08:00:29.106Z,16.74
2023-05-12T08:01:29.110Z,16.84
2023-05-12T08:02:29.198Z,16.90
2023-05-12T08:03:29.179Z,16.95
2023-05-12T08:04:30.541Z,16.95
2023-05-12T08:05:29.033Z,16.98
2023-05-12T08:06:29.045Z,17.06
2023-05-12T08:07:29.052Z,17.13
2023-05-12T08:08:29.065Z,17.19
2023-05-12T08:09:29.081Z,17.16
2023-05-12T08:10:29.071Z,17.12
2023-05-12T08:11:29.103Z,17.12
2023-05-12T08:12:29.080Z,17.04
2023-05-12T08:13:29.007Z,16.95
2023-05-12T08:14:29.102Z,17.04
2023-05-12T08:15:29.031Z,17.10
2023-05-12T08:16:29.347Z,17.16
2023-05-12T08:17:29.463Z,17.16
2023-05-12T08:18:29.283Z,17.20
2023-05-12T08:19:29.241Z,17.22
2023-05-12T08:20:28.934Z,17.32
2023-05-12T08:21:29.255Z,17.34
2023-05-12T08:22:29.261Z,17.41
2023-05-12T08:23:28.979Z,17.49
2023-05-12T08:24:28.968Z,17.54
2023-05-12T08:25:29.081Z,17.65
2023-05-12T08:26:28.898Z,17.75
2023-05-12T08:27:29.847Z,17.75
2023-05-12T08:28:28.872Z,17.81
2023-05-12T08:29:29.035Z,17.81
2023-05-12T08:30:29.005Z,17.88
2023-05-12T08:31:29.208Z,18.02
2023-05-12T08:32:29.065Z,18.18
2023-05-12T08:33:28.930Z,18.23
2023-05-12T08:34:28.952Z,18.27
2023-05-12T08:35:28.937Z,18.36
2023-05-12T08:36:29.222Z,18.43
2023-05-12T08:37:29.253Z,18.45
2023-05-12T08:38:29.288Z,18.61
2023-05-12T08:39:29.337Z,18.61
2023-05-12T08:40:28.793Z,18.63
2023-05-12T08:41:28.935Z,18.63
2023-05-12T08:42:29.451Z,18.56
2023-05-12T08:43:29.527Z,18.43
2023-05-12T08:44:29.511Z,18.45
2023-05-12T08:45:29.327Z,18.52
2023-05-12T08:46:29.590Z,18.64
2023-05-12T08:47:28.963Z,18.67
2023-05-12T08:48:29.534Z,18.81
2023-05-12T08:49:29.604Z,19.01
2023-05-12T08:50:28.941Z,19.04
2023-05-12T08:51:29.668Z,19.01
2023-05-12T08:52:28.850Z,18.98
2023-05-12T08:53:28.791Z,18.86
2023-05-12T08:54:28.769Z,18.75
2023-05-12T08:55:32.751Z,18.79
2023-05-12T08:57:29.775Z,18.61
2023-05-12T08:58:40.472Z,18.75
2023-05-12T08:59:28.904Z,18.79
2023-05-12T09:00:29.200Z,18.74
2023-05-12T09:01:29.037Z,18.75
2023-05-12T09:02:37.696Z,18.52
2023-05-12T09:03:29.294Z,18.48
2023-05-12T09:04:29.371Z,18.54
2023-05-12T09:05:29.347Z,18.60
2023-05-12T09:06:29.483Z,18.81
2023-05-12T09:07:28.654Z,19.00
2023-05-12T09:08:28.730Z,19.30
2023-05-12T09:09:28.673Z,19.44
2023-05-12T09:11:28.720Z,19.53
2023-05-12T09:12:28.680Z,19.68
2023-05-12T09:13:28.696Z,19.63
2023-05-12T09:14:28.706Z,19.64
2023-05-12T09:15:28.726Z,19.67
2023-05-12T09:16:28.799Z,19.75
2023-05-12T09:17:28.773Z,19.74
2023-05-12T09:18:28.769Z,19.70
2023-05-12T09:19:28.736Z,19.52
2023-05-12T09:20:31.814Z,19.39
2023-05-12T09:21:28.565Z,19.35
2023-05-12T09:22:28.490Z,19.32
2023-05-12T09:23:28.467Z,19.23
2023-05-12T09:24:28.472Z,19.17
2023-05-12T09:25:28.474Z,19.27
2023-05-12T09:26:28.546Z,19.35
2023-05-12T09:27:28.907Z,19.26
2023-05-12T09:28:28.505Z,19.20
2023-05-12T09:29:31.946Z,19.22
2023-05-12T09:30:28.512Z,19.37
2023-05-12T09:31:28.649Z,19.56
2023-05-12T09:32:28.648Z,19.60
2023-05-12T09:33:28.648Z,19.54
2023-05-12T09:34:28.756Z,19.49
2023-05-12T09:35:32.442Z,19.47
2023-05-12T09:36:28.441Z,19.44
2023-05-12T09:37:28.374Z,19.50
2023-05-12T09:38:28.362Z,19.49
2023-05-12T09:39:28.493Z,19.60
2023-05-12T09:40:28.381Z,19.78
2023-05-12T09:41:28.390Z,19.82
2023-05-12T09:42:28.391Z,19.93
2023-05-12T09:43:28.396Z,20.00
2023-05-12T09:44:28.305Z,20.07
2023-05-12T09:45:28.340Z,20.19
2023-05-12T09:46:28.354Z,20.22
2023-05-12T09:47:28.343Z,20.23
2023-05-12T09:48:28.330Z,20.27
2023-05-12T09:49:28.330Z,20.41
2023-05-12T09:50:30.596Z,20.44
2023-05-12T09:51:28.374Z,20.55
2023-05-12T09:52:28.370Z,20.50
2023-05-12T09:53:28.367Z,20.64
2023-05-12T09:54:28.424Z,20.65
2023-05-12T09:55:28.385Z,20.63
2023-05-12T09:56:28.388Z,20.63
2023-05-12T09:57:28.408Z,20.79
2023-05-12T09:58:28.304Z,21.00
2023-05-12T09:59:28.223Z,21.04
2023-05-12T10:00:41.193Z,20.95
2023-05-12T10:01:28.609Z,21.18
2023-05-12T10:02:28.417Z,21.10
2023-05-12T10:03:28.438Z,20.92
2023-05-12T10:04:28.255Z,20.82
2023-05-12T10:05:28.172Z,20.56
2023-05-12T10:06:28.514Z,20.58
2023-05-12T10:07:28.464Z,20.68
2023-05-12T10:08:28.579Z,20.67
2023-05-12T10:09:28.576Z,20.97
2023-05-12T10:10:28.491Z,20.80
2023-05-12T10:11:29.087Z,20.86
2023-05-12T10:12:28.595Z,20.97
2023-05-12T10:13:28.603Z,21.08
2023-05-12T10:14:28.096Z,21.04
2023-05-12T10:15:28.168Z,20.97
2023-05-12T10:16:28.669Z,20.80
2023-05-12T10:17:28.167Z,20.65
2023-05-12T10:18:28.153Z,20.60
2023-05-12T10:19:28.134Z,20.63
2023-05-12T10:20:28.248Z,20.49
2023-05-12T10:21:28.356Z,20.56
2023-05-12T10:22:28.428Z,20.53
2023-05-12T10:23:28.186Z,20.32
2023-05-12T10:24:28.076Z,20.53
2023-05-12T10:25:28.375Z,20.68
2023-05-12T10:26:27.999Z,20.90
2023-05-12T10:27:28.020Z,21.08
2023-05-12T10:28:28.449Z,21.29
2023-05-12T10:29:27.991Z,21.25
2023-05-12T10:30:28.713Z,21.25
2023-05-12T10:31:28.160Z,21.32
2023-05-12T10:32:28.056Z,21.60
2023-05-12T10:33:28.133Z,21.91
2023-05-12T10:34:28.160Z,21.91
2023-05-12T10:35:28.251Z,21.90
2023-05-12T10:36:27.977Z,22.04
2023-05-12T10:37:28.369Z,22.19
2023-05-12T10:38:28.070Z,22.41
2023-05-12T10:39:27.990Z,22.67
2023-05-12T10:40:28.189Z,22.78
2023-05-12T10:41:28.125Z,23.01
2023-05-12T10:42:28.503Z,22.71
2023-05-12T10:43:27.933Z,22.78
2023-05-12T10:44:28.716Z,22.85
2023-05-12T10:45:27.916Z,22.98
2023-05-12T10:46:27.903Z,23.14
2023-05-12T10:47:27.900Z,23.60
2023-05-12T10:48:27.944Z,23.85
2023-05-12T10:49:28.057Z,24.03
2023-05-12T10:50:28.205Z,24.15
2023-05-12T10:51:28.167Z,24.40
2023-05-12T10:52:28.161Z,24.62
2023-05-12T10:53:38.108Z,24.53
2023-05-12T10:54:28.079Z,24.38
2023-05-12T10:55:27.942Z,24.44
2023-05-12T10:56:28.631Z,24.78
2023-05-12T10:57:28.172Z,24.75
2023-05-12T10:58:29.086Z,24.58
2023-05-12T10:59:28.963Z,24.82
2023-05-12T11:00:29.423Z,24.75
2023-05-12T11:01:29.017Z,24.97
2023-05-12T11:02:29.380Z,25.19
2023-05-12T11:03:29.102Z,25.09
2023-05-12T11:04:29.721Z,24.97
2023-05-12T11:05:29.397Z,25.21
2023-05-12T11:06:29.114Z,25.21
2023-05-12T11:07:30.240Z,25.48
2023-05-12T11:08:28.618Z,25.66
2023-05-12T11:09:29.379Z,26.03
2023-05-12T11:10:29.027Z,26.34
2023-05-12T11:11:29.639Z,26.49
2023-05-12T11:12:28.504Z,26.43
2023-05-12T11:13:27.728Z,26.27
2023-05-12T11:14:27.703Z,25.73
2023-05-12T11:15:27.662Z,24.70
2023-05-12T11:16:27.731Z,24.48
2023-05-12T11:17:27.761Z,24.31
2023-05-12T11:18:27.795Z,23.98
2023-05-12T11:19:27.847Z,23.71
2023-05-12T11:20:30.198Z,23.48
2023-05-12T11:21:27.972Z,23.49
2023-05-12T11:22:28.113Z,23.64
2023-05-12T11:23:27.612Z,23.76
2023-05-12T11:24:28.164Z,23.92
2023-05-12T11:25:28.249Z,24.19
2023-05-12T11:26:28.271Z,24.60
2023-05-12T11:27:27.594Z,24.94
2023-05-12T11:28:27.739Z,25.30
2023-05-12T11:29:27.651Z,25.53
2023-05-12T11:30:27.707Z,24.65
2023-05-12T11:31:27.807Z,24.00
2023-05-12T11:32:27.871Z,23.89
2023-05-12T11:33:27.850Z,23.86
2023-05-12T11:35:53.555Z,24.01
2023-05-12T11:36:54.348Z,24.08
2023-05-12T11:37:53.674Z,24.48
2023-05-12T11:38:54.421Z,24.90
2023-05-12T11:39:53.597Z,24.85
2023-05-12T11:40:54.414Z,24.91
2023-05-12T11:42:02.022Z,24.40
2023-05-12T11:42:53.499Z,23.66
2023-05-12T11:43:53.512Z,23.37
2023-05-12T11:44:53.523Z,23.03
2023-05-12T11:45:53.549Z,22.77
2023-05-12T11:46:53.744Z,22.52
2023-05-12T11:47:53.823Z,22.22
2023-05-12T11:48:53.853Z,21.81
2023-05-12T11:49:53.860Z,21.71
2023-05-12T11:50:53.983Z,21.56
2023-05-12T11:51:54.085Z,21.41
2023-05-12T11:52:54.096Z,21.40
2023-05-12T11:53:53.890Z,21.44
2023-05-12T11:54:53.917Z,21.47
2023-05-12T11:55:53.593Z,21.45
2023-05-12T11:56:54.238Z,21.51
2023-05-12T11:57:54.414Z,21.47
2023-05-12T11:58:54.308Z,21.62
2023-05-12T11:59:54.206Z,21.69
2023-05-12T12:00:54.421Z,21.73
2023-05-12T12:01:54.269Z,21.69
2023-05-12T12:02:53.568Z,21.67
2023-05-12T12:03:53.380Z,21.37
2023-05-12T12:04:53.429Z,21.29
2023-05-12T12:05:53.573Z,21.19
2023-05-12T12:06:53.486Z,21.10
2023-05-12T12:07:53.281Z,21.08
2023-05-12T12:08:53.292Z,21.00
2023-05-12T12:09:53.299Z,21.01
2023-05-12T12:10:53.303Z,21.04
2023-05-12T12:11:53.307Z,21.11
2023-05-12T12:12:53.435Z,21.14
2023-05-12T12:13:53.423Z,21.23
2023-05-12T12:14:53.962Z,21.28
2023-05-12T12:15:53.719Z,21.43
2023-05-12T12:16:53.785Z,21.60
2023-05-12T12:17:53.694Z,21.69
2023-05-12T12:18:53.739Z,21.73
2023-05-12T12:19:53.775Z,21.80
2023-05-12T12:20:53.885Z,21.93
2023-05-12T12:21:53.894Z,22.03
2023-05-12T12:22:54.002Z,22.15
2023-05-12T12:23:54.012Z,22.27
2023-05-12T12:24:53.324Z,22.48
2023-05-12T12:25:53.202Z,22.46
2023-05-12T12:26:53.201Z,22.41
2023-05-12T12:27:53.214Z,22.38
2023-05-12T12:28:53.222Z,22.49
2023-05-12T12:29:53.224Z,22.59
2023-05-12T12:30:53.246Z,22.73
2023-05-12T12:31:53.214Z,22.59
2023-05-12T12:32:53.198Z,22.49
2023-05-12T12:33:53.158Z,22.44
2023-05-12T12:34:53.156Z,22.40
2023-05-12T12:35:53.168Z,22.22
2023-05-12T12:36:53.066Z,22.22
2023-05-12T12:37:53.185Z,22.23
2023-05-12T12:38:53.181Z,22.27
2023-05-12T12:39:53.082Z,22.22
2023-05-12T12:40:53.027Z,22.04
2023-05-12T12:41:53.110Z,22.12
2023-05-12T12:42:53.131Z,22.19
2023-05-12T12:43:53.146Z,22.19
2023-05-12T12:44:53.233Z,22.21
2023-05-12T12:45:53.140Z,22.30
2023-05-12T12:46:53.103Z,22.36
2023-05-12T12:47:53.451Z,22.36
2023-05-12T12:48:53.258Z,22.46
2023-05-12T12:49:53.265Z,22.34
2023-05-12T12:50:53.066Z,22.25
2023-05-12T12:51:53.386Z,22.34
2023-05-12T12:52:52.993Z,22.48
2023-05-12T12:53:52.979Z,22.62
2023-05-12T12:54:53.409Z,22.70
2023-05-12T12:55:53.016Z,22.86
2023-05-12T12:56:53.022Z,22.73
2023-05-12T12:57:53.018Z,22.86
2023-05-12T12:58:52.936Z,23.03
2023-05-12T12:59:53.140Z,23.08